Time;durP1;ratioP1;P1;durP2;ratioP2;P2;SDS_P1;SDS_P2;PMS_P1;PMS_P2;Temp;Humidity;BMP_temperature;BMP_pressure;BME280_temperature;BME280_humidity;BME280_pressure;Samples;Min_cycle;Max_cycle;Signal;HPM_P1;HPM_P2
2022/06/11 00:01:43;;;;;;;20.45;9.25;;;16.90;99.90;;;;;;5096255;28;20044;-74
2022/06/11 00:04:14;;;;;;;21.60;8.90;;;16.80;99.90;;;;;;5095774;28;20442;-72
2022/06/11 00:06:44;;;;;;;18.63;8.32;;;16.80;99.90;;;;;;5095648;28;20089;-76
2022/06/11 00:09:11;;;;;;;16.67;8.48;;;16.80;99.90;;;;;;5095336;28;20047;-73
2022/06/11 00:11:38;;;;;;;20.05;9.60;;;16.70;99.90;;;;;;5094317;28;20048;-73
2022/06/11 00:14:05;;;;;;;16.45;9.00;;;16.70;99.90;;;;;;5094626;28;20048;-73
2022/06/11 00:16:31;;;;;;;20.55;8.73;;;16.60;99.90;;;;;;5077509;28;20594;-72
2022/06/11 00:18:58;;;;;;;21.02;9.80;;;16.60;99.90;;;;;;5095217;28;20495;-72
2022/06/11 00:21:27;;;;;;;24.77;10.43;;;16.50;99.90;;;;;;5093404;28;20036;-72
2022/06/11 00:23:53;;;;;;;23.42;9.52;;;16.40;99.90;;;;;;5095502;28;20056;-75
2022/06/11 00:26:20;;;;;;;23.40;9.07;;;16.40;99.90;;;;;;5098119;28;20063;-72
2022/06/11 00:28:46;;;;;;;19.00;9.43;;;16.30;99.90;;;;;;5098723;28;20083;-72
2022/06/11 00:31:12;;;;;;;24.40;10.27;;;16.20;99.90;;;;;;5096667;28;20047;-74
2022/06/11 00:33:39;;;;;;;20.33;9.80;;;16.10;99.90;;;;;;5098127;28;20100;-73
2022/06/11 00:36:06;;;;;;;18.73;10.00;;;16.10;99.90;;;;;;5098031;28;20043;-73
2022/06/11 00:38:33;;;;;;;18.48;9.50;;;16.00;99.90;;;;;;5096907;28;20055;-73
2022/06/11 00:40:59;;;;;;;17.38;8.88;;;16.00;99.90;;;;;;5098431;28;20131;-73
2022/06/11 00:43:27;;;;;;;20.43;9.07;;;15.90;99.90;;;;;;5101702;28;20036;-73
2022/06/11 00:46:08;;;;;;;21.50;9.63;;;15.90;99.90;;;;;;5096435;28;20044;-72
2022/06/11 00:48:40;;;;;;;21.60;8.77;;;15.80;99.90;;;;;;5079364;28;20048;-74
2022/06/11 00:51:12;;;;;;;17.08;9.02;;;15.80;99.90;;;;;;5094284;28;20127;-73
2022/06/11 00:53:41;;;;;;;21.55;8.65;;;15.70;99.90;;;;;;5095539;28;20059;-72
2022/06/11 00:56:13;;;;;;;22.60;10.02;;;15.70;99.90;;;;;;5097358;28;20044;-73
2022/06/11 00:58:43;;;;;;;21.55;9.07;;;15.70;99.90;;;;;;5097573;28;20048;-72
2022/06/11 01:01:08;;;;;;;19.27;8.93;;;15.70;99.90;;;;;;5105691;28;20066;-73
2022/06/11 01:03:41;;;;;;;22.20;8.73;;;15.70;99.90;;;;;;5089570;28;20067;-73
2022/06/11 01:06:37;;;;;;;19.20;9.40;;;15.70;99.90;;;;;;5095839;28;20040;-72
2022/06/11 01:09:24;;;;;;;19.45;9.68;;;15.70;99.90;;;;;;5095243;28;20048;-72
2022/06/11 01:12:13;;;;;;;;;;;15.70;99.90;;;;;;5093953;28;20048;-72
2022/06/11 01:14:55;;;;;;;18.48;8.45;;;15.70;99.90;;;;;;5094095;28;19920;-72
2022/06/11 01:17:37;;;;;;;16.27;9.07;;;15.60;99.90;;;;;;5093928;28;20067;-74
2022/06/11 01:20:19;;;;;;;20.95;9.55;;;15.50;99.90;;;;;;5099372;28;20083;-74
2022/06/11 01:23:04;;;;;;;15.85;8.90;;;15.70;99.90;;;;;;5095813;28;20048;-73
2022/06/11 01:25:53;;;;;;;19.05;9.23;;;15.60;99.90;;;;;;5093474;28;20148;-73
2022/06/11 01:28:47;;;;;;;21.30;10.07;;;15.30;99.90;;;;;;5110992;28;20106;-72
2022/06/11 01:31:16;;;;;;;19.50;9.82;;;15.20;99.90;;;;;;5092660;28;20059;-73
2022/06/11 01:33:59;;;;;;;19.35;9.68;;;15.10;99.90;;;;;;5093241;28;20044;-72
2022/06/11 01:36:30;;;;;;;21.20;9.52;;;15.10;99.90;;;;;;5094524;28;20044;-71
2022/06/11 01:39:04;;;;;;;21.17;10.07;;;15.00;99.90;;;;;;5092542;28;20040;-75
2022/06/11 01:41:40;;;;;;;20.90;10.23;;;15.00;99.90;;;;;;5094016;28;20127;-73
2022/06/11 01:44:12;;;;;;;21.38;9.73;;;14.90;99.90;;;;;;5094457;28;20340;-73
2022/06/11 01:46:42;;;;;;;20.50;9.55;;;14.80;99.90;;;;;;5093007;28;20310;-73
2022/06/11 01:49:28;;;;;;;28.48;10.90;;;14.80;99.90;;;;;;5093220;28;20052;-71
2022/06/11 01:52:02;;;;;;;23.37;10.23;;;14.90;99.90;;;;;;5092604;28;20144;-72
2022/06/11 01:54:37;;;;;;;23.83;10.48;;;14.90;99.90;;;;;;5093638;28;20424;-72
2022/06/11 01:57:43;;;;;;;19.42;11.25;;;15.00;99.90;;;;;;5092451;28;20044;-72
2022/06/11 02:00:36;;;;;;;23.75;12.60;;;15.10;99.90;;;;;;5093732;28;20097;-71
2022/06/11 02:03:14;;;;;;;23.10;12.50;;;15.20;99.90;;;;;;5093527;28;20044;-74
2022/06/11 02:05:53;;;;;;;29.00;14.15;;;15.30;99.90;;;;;;5093858;28;20056;-73
2022/06/11 02:08:28;;;;;;;27.40;13.60;;;15.30;99.90;;;;;;5091986;28;20488;-73
2022/06/11 02:11:16;;;;;;;29.90;14.63;;;15.30;99.90;;;;;;5091463;28;20052;-74
2022/06/11 02:14:06;;;;;;;29.75;15.25;;;15.30;99.90;;;;;;5093418;28;20063;-74
2022/06/11 02:16:55;;;;;;;28.25;15.65;;;15.30;99.90;;;;;;5093172;28;20059;-72
2022/06/11 02:19:50;;;;;;;32.92;15.32;;;15.20;99.90;;;;;;5092227;28;20101;-73
2022/06/11 02:22:23;;;;;;;33.17;16.17;;;15.30;99.90;;;;;;5091802;28;20052;-73
2022/06/11 02:25:05;;;;;;;29.95;17.15;;;15.30;99.90;;;;;;5092412;28;20128;-74
2022/06/11 02:27:33;;;;;;;27.38;15.50;;;15.20;99.90;;;;;;5092941;28;20048;-75
2022/06/11 02:29:59;;;;;;;29.08;15.05;;;15.20;99.90;;;;;;5091769;28;20123;-75
2022/06/11 02:32:29;;;;;;;30.60;15.57;;;15.20;99.90;;;;;;5092282;28;20056;-73
2022/06/11 02:35:00;;;;;;;29.23;14.90;;;15.20;99.90;;;;;;5095771;28;20075;-75
2022/06/11 02:37:43;;;;;;;30.20;14.77;;;15.20;99.90;;;;;;5092747;28;20048;-74
2022/06/11 02:40:16;;;;;;;27.13;13.65;;;15.10;99.90;;;;;;5092624;28;20127;-72
2022/06/11 02:42:43;;;;;;;29.40;15.00;;;15.10;99.90;;;;;;5092696;28;20098;-75
2022/06/11 02:45:12;;;;;;;26.60;14.75;;;15.10;99.90;;;;;;5094788;28;20052;-72
2022/06/11 02:47:40;;;;;;;26.63;14.73;;;15.10;99.90;;;;;;5096427;28;20109;-72
2022/06/11 02:50:06;;;;;;;31.35;14.50;;;15.00;99.90;;;;;;5096611;28;20054;-73
2022/06/11 02:52:33;;;;;;;32.10;14.77;;;15.00;99.90;;;;;;5096262;28;20048;-72
2022/06/11 02:54:59;;;;;;;26.13;13.32;;;15.00;99.90;;;;;;5095301;28;20384;-75
2022/06/11 02:57:29;;;;;;;24.40;11.82;;;15.00;99.90;;;;;;5095815;28;20146;-72
2022/06/11 02:59:56;;;;;;;23.90;12.73;;;15.00;99.90;;;;;;5096785;28;20093;-74
2022/06/11 03:02:23;;;;;;;21.35;12.25;;;15.00;99.90;;;;;;5096075;28;20051;-73
2022/06/11 03:04:50;;;;;;;22.60;11.10;;;14.90;99.90;;;;;;5096439;28;20087;-73
2022/06/11 03:07:16;;;;;;;28.65;11.10;;;14.90;99.90;;;;;;5096469;28;20044;-73
2022/06/11 03:09:43;;;;;;;25.73;10.90;;;14.90;99.90;;;;;;5078586;28;20352;-74
2022/06/11 03:12:10;;;;;;;22.50;9.38;;;14.90;99.90;;;;;;5094500;28;20399;-73
2022/06/11 03:14:37;;;;;;;20.95;9.20;;;14.90;99.90;;;;;;5094623;28;20202;-73
2022/06/11 03:17:03;;;;;;;18.93;8.53;;;14.90;99.90;;;;;;5094845;28;20479;-74
2022/06/11 03:19:29;;;;;;;21.30;8.38;;;14.80;99.90;;;;;;5077789;28;20318;-74
2022/06/11 03:21:56;;;;;;;21.02;7.63;;;14.80;99.90;;;;;;5077736;28;20055;-73
2022/06/11 03:24:24;;;;;;;17.63;7.93;;;14.80;99.90;;;;;;5096020;28;20040;-74
2022/06/11 03:26:51;;;;;;;22.00;7.72;;;14.70;99.90;;;;;;5096061;28;20060;-72
2022/06/11 03:29:17;;;;;;;15.48;7.32;;;14.70;99.90;;;;;;5095410;28;20067;-73
2022/06/11 03:31:44;;;;;;;18.77;7.38;;;14.70;99.90;;;;;;5094503;28;20052;-73
2022/06/11 03:34:11;;;;;;;16.02;7.05;;;14.70;99.90;;;;;;5094371;28;20048;-74
2022/06/11 03:36:37;;;;;;;15.48;6.30;;;14.70;99.90;;;;;;5095574;28;20055;-73
2022/06/11 03:39:04;;;;;;;18.88;5.60;;;14.60;99.90;;;;;;5077279;28;20130;-73
2022/06/11 03:41:31;;;;;;;16.73;6.03;;;14.80;99.90;;;;;;5095405;28;20055;-73
2022/06/11 03:43:57;;;;;;;18.70;6.30;;;14.80;99.90;;;;;;5095354;28;20044;-72
2022/06/11 03:46:23;;;;;;;12.70;5.32;;;14.90;99.90;;;;;;5095698;28;20043;-72
2022/06/11 03:48:49;;;;;;;12.77;4.17;;;14.90;99.90;;;;;;5095421;28;20040;-77
2022/06/11 03:51:16;;;;;;;12.02;4.10;;;15.10;99.90;;;;;;5095468;28;20069;-74
2022/06/11 03:53:42;;;;;;;13.38;3.92;;;15.10;99.90;;;;;;5096118;28;20059;-74
2022/06/11 03:56:10;;;;;;;19.13;3.70;;;15.10;99.90;;;;;;5094602;28;20039;-73
2022/06/11 03:58:38;;;;;;;17.10;3.75;;;15.00;99.90;;;;;;5096332;28;20435;-74
2022/06/11 04:01:17;;;;;;;14.38;3.45;;;14.90;99.90;;;;;;5096078;28;20113;-73
2022/06/11 04:03:51;;;;;;;12.13;3.40;;;14.90;99.90;;;;;;5094560;28;20077;-74
2022/06/11 04:06:21;;;;;;;12.85;2.75;;;14.80;99.90;;;;;;5094199;28;20123;-73
2022/06/11 04:08:48;;;;;;;14.00;2.88;;;14.80;99.90;;;;;;5094782;28;20167;-74
2022/06/11 04:11:15;;;;;;;14.70;3.28;;;14.80;99.90;;;;;;5093424;28;20051;-73
2022/06/11 04:13:42;;;;;;;12.60;3.42;;;14.80;99.90;;;;;;5093666;28;20153;-72
2022/06/11 04:16:27;;;;;;;15.38;3.50;;;14.80;99.90;;;;;;5077001;28;20129;-71
2022/06/11 04:18:54;;;;;;;11.63;3.33;;;14.80;99.90;;;;;;5093805;28;20105;-76
2022/06/11 04:21:21;;;;;;;21.33;3.33;;;14.80;99.90;;;;;;5094663;28;20082;-72
2022/06/11 04:23:51;;;;;;;14.30;4.18;;;14.80;99.90;;;;;;5093599;28;20048;-73
2022/06/11 04:26:22;;;;;;;16.42;4.40;;;14.90;99.90;;;;;;5093008;28;20078;-74
2022/06/11 04:28:48;;;;;;;13.13;4.00;;;14.90;99.90;;;;;;5093663;28;20051;-74
2022/06/11 04:31:15;;;;;;;14.73;4.45;;;14.90;99.90;;;;;;5111335;28;20118;-73
2022/06/11 04:33:43;;;;;;;15.07;5.40;;;15.00;99.90;;;;;;5095347;28;20051;-72
2022/06/11 04:36:09;;;;;;;14.88;5.43;;;15.00;99.90;;;;;;5092984;28;20515;-72
2022/06/11 04:38:38;;;;;;;12.95;5.07;;;15.00;99.90;;;;;;5076538;28;20079;-72
2022/06/11 04:41:04;;;;;;;13.65;4.97;;;15.00;99.90;;;;;;5094995;28;20048;-73
2022/06/11 04:43:30;;;;;;;14.43;5.05;;;15.00;99.90;;;;;;5094646;28;20047;-72
2022/06/11 04:45:56;;;;;;;16.20;5.22;;;15.00;99.90;;;;;;5093975;28;20101;-74
2022/06/11 04:48:22;;;;;;;11.30;5.80;;;15.00;99.90;;;;;;5077777;28;20058;-73
2022/06/11 04:50:48;;;;;;;17.08;5.28;;;15.10;99.90;;;;;;5093190;28;20043;-71
2022/06/11 04:53:13;;;;;;;16.23;6.20;;;15.20;99.90;;;;;;5094477;28;20048;-72
2022/06/11 04:55:40;;;;;;;14.65;4.88;;;15.20;99.90;;;;;;5093005;28;20177;-73
2022/06/11 04:58:06;;;;;;;15.98;5.95;;;15.20;99.90;;;;;;5060523;28;20142;-73
2022/06/11 05:00:33;;;;;;;17.40;5.85;;;15.30;99.90;;;;;;5094301;28;20048;-74
2022/06/11 05:02:59;;;;;;;17.40;5.60;;;15.30;99.90;;;;;;5094666;28;20048;-74
2022/06/11 05:05:25;;;;;;;14.67;5.00;;;15.30;99.90;;;;;;5093273;28;20308;-73
2022/06/11 05:07:52;;;;;;;11.40;3.77;;;15.40;99.90;;;;;;5094017;28;20050;-75
2022/06/11 05:10:21;;;;;;;15.00;5.18;;;15.50;99.90;;;;;;5094557;28;20610;-74
2022/06/11 05:12:47;;;;;;;16.55;5.05;;;15.50;99.90;;;;;;5094377;28;20537;-74
2022/06/11 05:15:13;;;;;;;11.82;5.43;;;15.50;99.90;;;;;;5093030;28;20067;-74
2022/06/11 05:17:40;;;;;;;14.43;5.40;;;15.60;99.90;;;;;;5094944;28;20059;-74
2022/06/11 05:20:07;;;;;;;;;;;15.60;99.90;;;;;;5094394;28;20393;-74
2022/06/11 05:22:34;;;;;;;;;;;15.60;99.90;;;;;;5093744;28;19975;-73
2022/06/11 05:24:59;;;;;;;12.93;4.72;;;15.60;99.90;;;;;;5092596;28;19985;-73
2022/06/11 05:27:26;;;;;;;17.73;5.60;;;15.70;99.90;;;;;;5093610;28;20082;-73
2022/06/11 05:29:59;;;;;;;17.15;4.38;;;15.60;99.90;;;;;;5093828;28;20041;-74
2022/06/11 05:32:29;;;;;;;15.18;4.70;;;15.80;99.90;;;;;;5093132;28;20067;-72
2022/06/11 05:34:56;;;;;;;15.07;4.13;;;15.80;99.90;;;;;;5094500;28;20083;-73
2022/06/11 05:37:23;;;;;;;15.00;4.38;;;15.80;99.90;;;;;;5094071;28;20519;-75
2022/06/11 05:39:49;;;;;;;14.60;3.70;;;15.90;99.90;;;;;;5093577;28;20051;-74
2022/06/11 05:42:17;;;;;;;13.87;3.37;;;15.90;99.90;;;;;;5093696;28;20127;-74
2022/06/11 05:44:43;;;;;;;14.93;3.65;;;16.00;99.90;;;;;;5077217;28;20289;-72
2022/06/11 05:47:12;;;;;;;14.48;3.92;;;16.00;99.90;;;;;;5092846;28;20531;-74
2022/06/11 05:49:41;;;;;;;15.27;3.92;;;16.00;99.90;;;;;;5094198;28;20044;-74
2022/06/11 05:52:12;;;;;;;17.92;3.75;;;16.10;99.90;;;;;;5097945;28;20051;-72
2022/06/11 05:54:40;;;;;;;19.95;4.13;;;16.10;99.90;;;;;;5093111;28;20083;-74
2022/06/11 05:57:09;;;;;;;18.27;3.45;;;16.10;99.90;;;;;;5093948;28;20048;-73
2022/06/11 05:59:39;;;;;;;15.13;3.30;;;16.20;99.90;;;;;;5093303;28;20113;-74
2022/06/11 06:02:10;;;;;;;16.05;3.42;;;16.20;99.90;;;;;;5092294;28;20040;-73
2022/06/11 06:04:37;;;;;;;14.60;2.67;;;16.30;99.90;;;;;;5093803;28;20040;-71
2022/06/11 06:07:03;;;;;;;19.40;2.67;;;16.30;99.90;;;;;;5093337;28;20057;-74
2022/06/11 06:09:29;;;;;;;22.23;3.35;;;16.30;99.90;;;;;;5092674;28;20051;-73
2022/06/11 06:11:54;;;;;;;14.57;3.03;;;16.40;99.90;;;;;;5075832;28;20066;-74
2022/06/11 06:14:20;;;;;;;18.35;3.47;;;16.50;99.90;;;;;;5075757;28;20043;-73
2022/06/11 06:16:46;;;;;;;21.55;3.35;;;16.40;99.90;;;;;;5093763;28;20039;-74
2022/06/11 06:19:11;;;;;;;21.25;2.90;;;16.50;99.90;;;;;;5095499;28;20197;-73
2022/06/11 06:21:37;;;;;;;22.15;2.85;;;16.60;99.90;;;;;;5098077;28;20101;-74
2022/06/11 06:24:04;;;;;;;21.75;3.20;;;16.60;99.90;;;;;;5095785;28;20669;-74
2022/06/11 06:26:30;;;;;;;;;;;16.60;99.90;;;;;;5097757;28;20087;-72
2022/06/11 06:28:56;;;;;;;15.23;2.65;;;16.60;99.90;;;;;;5097043;28;19920;-74
2022/06/11 06:31:22;;;;;;;23.90;3.28;;;16.60;99.90;;;;;;5097586;28;20059;-73
2022/06/11 06:33:50;;;;;;;23.83;3.60;;;16.80;99.90;;;;;;5078798;28;20044;-73
2022/06/11 06:36:17;;;;;;;24.80;3.60;;;16.80;99.90;;;;;;5095931;28;20048;-73
2022/06/11 06:38:44;;;;;;;23.23;2.92;;;16.80;99.90;;;;;;5097076;28;20052;-74
2022/06/11 06:41:10;;;;;;;20.27;3.45;;;17.00;99.90;;;;;;5097717;28;20078;-73
2022/06/11 06:43:36;;;;;;;26.92;3.40;;;17.00;99.90;;;;;;5096916;28;20051;-73
2022/06/11 06:46:03;;;;;;;16.20;3.30;;;17.10;99.90;;;;;;5096673;28;20165;-74
2022/06/11 06:48:28;;;;;;;22.40;3.20;;;17.20;99.90;;;;;;5079334;28;20507;-74
2022/06/11 06:50:54;;;;;;;26.43;3.67;;;17.30;99.90;;;;;;5095499;28;20055;-73
2022/06/11 06:53:21;;;;;;;23.93;3.00;;;17.40;99.90;;;;;;5095539;28;20044;-74
2022/06/11 06:55:48;;;;;;;19.88;3.50;;;17.40;99.90;;;;;;5096989;28;20327;-72
2022/06/11 06:58:15;;;;;;;19.13;3.50;;;17.50;99.90;;;;;;5079654;28;20044;-74
2022/06/11 07:00:43;;;;;;;29.92;3.35;;;17.50;99.90;;;;;;5096588;28;20365;-72
2022/06/11 07:03:11;;;;;;;27.63;3.65;;;17.60;99.90;;;;;;5097036;28;20048;-74
2022/06/11 07:05:37;;;;;;;21.30;3.15;;;17.60;99.90;;;;;;5096709;28;20160;-74
2022/06/11 07:08:03;;;;;;;20.17;3.07;;;17.60;99.90;;;;;;5095988;28;20055;-72
2022/06/11 07:10:29;;;;;;;17.40;2.87;;;17.80;99.90;;;;;;5096757;28;20290;-73
2022/06/11 07:12:55;;;;;;;20.08;3.40;;;17.80;99.90;;;;;;5094936;28;20051;-74
2022/06/11 07:15:21;;;;;;;24.60;3.33;;;17.90;99.90;;;;;;5094981;28;20044;-73
2022/06/11 07:17:59;;;;;;;21.20;3.33;;;17.90;99.90;;;;;;5095304;28;20127;-73
2022/06/11 07:20:28;;;;;;;22.27;2.95;;;17.90;99.90;;;;;;5112356;28;20051;-73
2022/06/11 07:23:06;;;;;;;22.42;3.20;;;18.00;99.90;;;;;;5078560;28;20052;-72
2022/06/11 07:25:33;;;;;;;24.80;3.42;;;18.00;99.90;;;;;;5096298;28;20051;-74
2022/06/11 07:28:04;;;;;;;22.77;3.15;;;18.10;99.90;;;;;;5095239;28;20044;-73
2022/06/11 07:30:35;;;;;;;28.13;4.30;;;18.10;99.90;;;;;;5095163;28;20048;-74
2022/06/11 07:33:07;;;;;;;29.90;3.72;;;18.20;99.90;;;;;;5095014;28;20048;-74
2022/06/11 07:35:35;;;;;;;29.52;3.70;;;18.20;99.90;;;;;;5095306;28;20138;-73
2022/06/11 07:38:03;;;;;;;28.17;3.70;;;18.10;99.90;;;;;;5095437;28;20460;-73
2022/06/11 07:40:31;;;;;;;27.02;3.65;;;18.10;99.90;;;;;;5094449;28;20114;-73
2022/06/11 07:42:56;;;;;;;24.60;3.58;;;18.20;99.90;;;;;;5095634;28;20047;-72
2022/06/11 07:45:22;;;;;;;28.27;4.00;;;18.30;99.90;;;;;;5095853;28;20123;-72
2022/06/11 07:47:53;;;;;;;27.40;3.90;;;18.30;99.90;;;;;;5094530;28;20048;-73
2022/06/11 07:50:22;;;;;;;24.02;3.95;;;;;;;;;;5062812;28;20113;-72
2022/06/11 07:52:49;;;;;;;21.83;3.42;;;;;;;;;;5098581;28;20091;-73
2022/06/11 07:55:14;;;;;;;24.17;3.78;;;18.50;99.90;;;;;;5085694;28;20051;-74
2022/06/11 07:57:40;;;;;;;19.50;3.17;;;18.60;99.90;;;;;;5104924;28;20048;-72
2022/06/11 08:00:10;;;;;;;28.20;3.93;;;18.70;99.90;;;;;;5103129;28;20044;-73
2022/06/11 08:02:36;;;;;;;29.60;3.50;;;18.70;99.90;;;;;;5084411;28;20051;-73
2022/06/11 08:05:03;;;;;;;20.20;2.70;;;18.70;99.90;;;;;;5097771;28;20062;-74
2022/06/11 08:07:29;;;;;;;27.08;3.20;;;19.00;99.90;;;;;;5096055;28;20089;-74
2022/06/11 08:09:57;;;;;;;20.88;2.78;;;18.90;99.90;;;;;;5095818;28;20047;-72
2022/06/11 08:12:27;;;;;;;22.25;3.20;;;18.90;99.90;;;;;;5095151;28;20492;-72
2022/06/11 08:14:56;;;;;;;28.38;3.72;;;19.30;99.90;;;;;;5061566;28;20071;-72
2022/06/11 08:17:32;;;;;;;26.45;3.58;;;19.10;99.90;;;;;;5095212;28;20109;-75
2022/06/11 08:19:58;;;;;;;25.27;3.63;;;19.20;99.90;;;;;;5095782;28;20507;-72
2022/06/11 08:22:24;;;;;;;25.60;3.73;;;19.20;99.90;;;;;;5094500;28;20063;-72
2022/06/11 08:24:50;;;;;;;23.13;3.43;;;19.40;99.90;;;;;;5093348;28;20290;-74
2022/06/11 08:27:16;;;;;;;22.17;3.20;;;19.60;99.90;;;;;;5093021;28;20051;-79
2022/06/11 08:29:42;;;;;;;26.85;3.50;;;19.80;99.90;;;;;;5094735;28;20072;-74
2022/06/11 08:32:10;;;;;;;29.17;3.67;;;19.90;99.90;;;;;;5094807;28;20040;-75
2022/06/11 08:34:38;;;;;;;32.20;3.72;;;19.90;99.90;;;;;;5092858;28;20436;-73
2022/06/11 08:37:03;;;;;;;29.33;3.88;;;19.80;99.90;;;;;;5093098;28;20559;-76
2022/06/11 08:39:29;;;;;;;28.20;3.60;;;19.90;99.90;;;;;;5094007;28;20131;-73
2022/06/11 08:41:59;;;;;;;31.93;3.63;;;19.90;99.90;;;;;;5092278;28;20361;-74
2022/06/11 08:44:26;;;;;;;26.60;3.53;;;19.90;99.90;;;;;;5094099;28;20127;-73
2022/06/11 08:46:55;;;;;;;23.58;3.50;;;19.80;99.90;;;;;;5076495;28;20138;-74
2022/06/11 08:49:45;;;;;;;24.83;3.35;;;19.80;99.90;;;;;;5093449;28;20511;-74
2022/06/11 08:52:18;;;;;;;30.38;4.63;;;19.90;99.90;;;;;;5094330;28;20458;-74
2022/06/11 08:54:46;;;;;;;29.45;4.13;;;20.10;99.90;;;;;;5093745;28;20087;-74
2022/06/11 08:57:43;;;;;;;27.67;3.90;;;20.10;99.90;;;;;;5093864;28;20052;-74
2022/06/11 09:00:59;;;;;;;24.08;3.30;;;20.20;99.90;;;;;;5092231;28;20056;-74
2022/06/11 09:03:57;;;;;;;21.67;3.20;;;20.20;99.90;;;;;;5067615;28;20060;-74
2022/06/11 09:06:54;;;;;;;26.38;3.65;;;20.20;99.90;;;;;;5092148;28;20040;-73
2022/06/11 09:09:46;;;;;;;31.40;3.58;;;20.30;99.90;;;;;;5064114;28;20074;-77
2022/06/11 09:12:30;;;;;;;24.58;2.88;;;20.40;99.90;;;;;;5093241;28;20052;-73
2022/06/11 09:15:34;;;;;;;25.45;3.85;;;20.50;99.90;;;;;;5092398;28;20052;-74
2022/06/11 09:18:24;;;;;;;28.58;2.92;;;20.40;99.90;;;;;;5093966;28;20048;-74
2022/06/11 09:21:01;;;;;;;14.40;2.40;;;20.40;99.90;;;;;;5094181;28;20142;-72
2022/06/11 09:23:46;;;;;;;16.45;2.35;;;20.50;99.90;;;;;;5093192;28;20048;-73
2022/06/11 09:26:20;;;;;;;20.75;3.95;;;20.60;99.90;;;;;;5091842;28;20062;-75
2022/06/11 09:29:13;;;;;;;23.15;3.45;;;20.50;99.90;;;;;;5092718;28;20105;-74
2022/06/11 09:31:52;;;;;;;24.73;2.67;;;20.60;99.90;;;;;;5111724;28;20048;-74
2022/06/11 09:34:46;;;;;;;21.83;3.03;;;20.60;99.90;;;;;;5079417;28;20052;-75
2022/06/11 09:37:17;;;;;;;18.52;2.38;;;20.60;99.90;;;;;;5093413;28;20286;-75
2022/06/11 09:40:01;;;;;;;22.92;2.88;;;20.60;99.90;;;;;;5092976;28;20036;-73
2022/06/11 09:43:18;;;;;;;21.70;2.03;;;20.60;99.90;;;;;;5092093;28;20614;-74
2022/06/11 09:45:49;;;;;;;30.98;4.10;;;20.80;99.90;;;;;;5058201;28;20044;-74
2022/06/11 09:48:43;;;;;;;23.42;3.92;;;20.90;99.90;;;;;;5092763;28;20101;-73
2022/06/11 09:51:34;;;;;;;18.77;2.60;;;20.90;99.90;;;;;;5093219;28;20077;-73
2022/06/11 09:54:02;;;;;;;25.33;2.97;;;20.70;99.90;;;;;;5093693;28;20110;-77
2022/06/11 09:56:49;;;;;;;18.70;2.30;;;20.80;99.90;;;;;;5077938;28;20055;-75
2022/06/11 09:59:33;;;;;;;14.75;2.10;;;20.70;99.90;;;;;;5100257;28;20048;-73
2022/06/11 10:02:18;;;;;;;18.48;2.47;;;20.60;99.90;;;;;;5098586;28;20059;-73
2022/06/11 10:04:46;;;;;;;18.73;2.03;;;20.70;99.90;;;;;;5095996;28;20215;-73
2022/06/11 10:07:22;;;;;;;22.02;2.47;;;20.80;99.90;;;;;;5092430;28;20040;-74
2022/06/11 10:10:01;;;;;;;20.38;2.85;;;20.90;99.90;;;;;;5075747;28;20051;-74
2022/06/11 10:12:31;;;;;;;23.08;2.80;;;20.90;99.90;;;;;;5093563;28;20044;-76
2022/06/11 10:15:19;;;;;;;22.40;2.55;;;21.10;99.90;;;;;;5093139;28;20165;-72
2022/06/11 10:18:12;;;;;;;21.80;2.30;;;21.30;99.90;;;;;;5092189;28;20048;-74
2022/06/11 10:20:51;;;;;;;15.40;2.60;;;21.40;99.90;;;;;;5094479;28;20059;-72
2022/06/11 10:23:40;;;;;;;26.60;2.88;;;21.40;99.90;;;;;;5077022;28;20044;-75
2022/06/11 10:26:26;;;;;;;20.85;2.22;;;21.30;99.30;;;;;;5091775;28;20150;-73
2022/06/11 10:29:01;;;;;;;19.30;1.60;;;21.40;98.70;;;;;;5093344;28;20052;-75
2022/06/11 10:31:48;;;;;;;19.70;2.13;;;21.50;99.50;;;;;;5092275;28;20044;-72
2022/06/11 10:34:26;;;;;;;19.77;1.98;;;21.20;96.60;;;;;;5093044;28;20047;-74
2022/06/11 10:36:54;;;;;;;19.10;2.63;;;21.20;97.30;;;;;;5093394;28;20080;-74
2022/06/11 10:39:36;;;;;;;17.95;2.22;;;21.20;98.40;;;;;;5095785;28;20130;-74
2022/06/11 10:42:29;;;;;;;17.92;1.98;;;21.30;98.20;;;;;;5092122;28;20087;-73
2022/06/11 10:44:56;;;;;;;19.92;2.03;;;21.30;95.70;;;;;;5084850;28;20052;-74
2022/06/11 10:47:27;;;;;;;21.88;2.35;;;21.20;96.10;;;;;;5095848;28;20051;-74
2022/06/11 10:50:14;;;;;;;15.40;1.95;;;21.20;96.30;;;;;;5095949;28;20047;-75
2022/06/11 10:53:14;;;;;;;19.15;2.40;;;21.30;96.10;;;;;;5093863;28;20048;-73
2022/06/11 10:56:17;;;;;;;19.55;2.50;;;21.10;95.20;;;;;;5093740;28;20464;-73
2022/06/11 10:59:15;;;;;;;19.95;2.53;;;21.30;97.00;;;;;;5092374;28;20060;-73
2022/06/11 11:01:49;;;;;;;19.83;2.15;;;21.50;96.80;;;;;;5092571;28;20105;-73
2022/06/11 11:04:18;;;;;;;19.55;2.40;;;21.40;96.10;;;;;;5097072;28;20044;-74
2022/06/11 11:06:44;;;;;;;25.02;2.47;;;21.40;96.00;;;;;;5100873;28;20055;-76
2022/06/11 11:09:20;;;;;;;19.98;2.45;;;21.30;94.30;;;;;;5100992;28;20127;-73
2022/06/11 11:12:01;;;;;;;24.02;2.13;;;21.30;96.30;;;;;;5099534;28;20056;-73
2022/06/11 11:14:44;;;;;;;18.83;2.28;;;21.40;95.90;;;;;;5100257;28;20070;-74
2022/06/11 11:17:24;;;;;;;19.85;2.25;;;21.40;94.80;;;;;;5102320;28;20388;-74
2022/06/11 11:22:40;;;;;;;15.65;2.55;;;21.60;95.40;;;;;;5100160;28;20056;-74
2022/06/11 11:25:15;;;;;;;14.68;2.03;;;21.60;94.80;;;;;;5081312;28;20052;-74
2022/06/11 11:27:46;;;;;;;18.27;2.60;;;21.70;95.10;;;;;;5098429;28;20468;-73
2022/06/11 11:30:16;;;;;;;20.55;3.03;;;21.80;94.00;;;;;;5098849;28;20127;-73
2022/06/11 11:32:46;;;;;;;20.95;2.42;;;21.60;93.50;;;;;;5099024;28;20052;-73
2022/06/11 11:35:15;;;;;;;26.92;2.70;;;21.60;93.80;;;;;;5098803;28;20143;-74
2022/06/11 11:37:41;;;;;;;20.70;2.55;;;21.70;93.60;;;;;;5099188;28;20054;-73
2022/06/11 11:40:25;;;;;;;23.40;2.42;;;21.70;93.40;;;;;;5098512;28;20072;-74
2022/06/11 11:42:55;;;;;;;22.02;2.40;;;21.50;92.60;;;;;;5080793;28;20047;-72
2022/06/11 11:45:40;;;;;;;25.73;2.53;;;21.60;93.30;;;;;;5099166;28;20048;-74
2022/06/11 11:48:11;;;;;;;22.08;2.83;;;21.70;94.00;;;;;;5097058;28;20094;-73
2022/06/11 11:50:40;;;;;;;21.33;2.88;;;21.50;92.80;;;;;;5096805;28;20193;-76
2022/06/11 11:53:26;;;;;;;16.13;2.30;;;21.70;94.40;;;;;;5096529;28;20059;-74
2022/06/11 11:56:05;;;;;;;18.67;2.30;;;21.70;93.50;;;;;;5102359;28;20051;-73
2022/06/11 11:58:44;;;;;;;23.05;2.78;;;21.90;93.40;;;;;;5100690;28;20040;-74
2022/06/11 12:01:16;;;;;;;21.20;2.78;;;21.90;94.00;;;;;;5101065;28;20086;-74
2022/06/11 12:03:47;;;;;;;23.58;2.67;;;22.00;94.10;;;;;;5105473;28;20043;-76
2022/06/11 12:06:17;;;;;;;18.92;2.75;;;22.00;93.40;;;;;;5101022;28;20040;-72
2022/06/11 12:08:53;;;;;;;18.00;2.17;;;22.20;93.70;;;;;;5101562;28;20126;-77
2022/06/11 12:11:39;;;;;;;32.77;3.70;;;22.20;94.10;;;;;;5101675;28;20044;-74
2022/06/11 12:14:15;;;;;;;21.20;2.58;;;22.10;93.40;;;;;;5106371;28;20051;-73
2022/06/11 12:16:53;;;;;;;20.85;2.95;;;22.10;93.30;;;;;;5104012;28;20090;-74
2022/06/11 12:19:19;;;;;;;27.88;3.10;;;22.00;93.70;;;;;;5103197;28;20443;-74
2022/06/11 12:21:51;;;;;;;18.77;3.10;;;22.00;92.60;;;;;;5105970;28;20044;-76
2022/06/11 12:24:40;;;;;;;17.67;2.10;;;22.00;92.90;;;;;;5107093;28;20048;-74
2022/06/11 12:27:31;;;;;;;19.40;2.35;;;22.10;92.80;;;;;;5108645;28;20048;-74
2022/06/11 12:30:04;;;;;;;20.40;3.15;;;21.90;91.80;;;;;;5109119;28;20107;-75
2022/06/11 12:32:33;;;;;;;;;;;22.00;94.50;;;;;;5108146;28;20050;-75
2022/06/11 12:35:01;;;;;;;22.23;2.80;;;22.10;93.20;;;;;;5106066;28;19924;-74
2022/06/11 12:37:55;;;;;;;26.75;3.47;;;22.20;92.40;;;;;;5106998;28;20140;-74
2022/06/11 12:40:39;;;;;;;24.50;3.10;;;22.10;92.00;;;;;;5105276;28;20059;-73
2022/06/11 12:43:21;;;;;;;17.10;2.70;;;22.20;91.70;;;;;;5103507;28;20040;-74
2022/06/11 12:46:12;;;;;;;18.40;2.42;;;22.30;91.90;;;;;;5098681;28;20051;-79
2022/06/11 12:48:52;;;;;;;19.30;2.70;;;22.30;91.90;;;;;;5094754;28;20044;-75
2022/06/11 12:51:23;;;;;;;19.38;2.75;;;22.40;91.50;;;;;;5097348;28;20140;-73
2022/06/11 12:54:22;;;;;;;25.38;2.85;;;22.40;91.50;;;;;;5095283;28;20047;-77
2022/06/11 12:57:27;;;;;;;25.52;2.90;;;22.50;91.10;;;;;;5103329;28;20046;-77
2022/06/11 13:00:01;;;;;;;23.38;2.95;;;22.40;91.20;;;;;;5101824;28;20098;-72
2022/06/11 13:02:47;;;;;;;24.63;2.47;;;22.50;91.00;;;;;;5080782;28;20492;-74
2022/06/11 13:05:31;;;;;;;20.20;2.92;;;22.40;90.40;;;;;;5096265;28;20484;-72
2022/06/11 13:08:22;;;;;;;27.55;2.78;;;22.30;91.10;;;;;;5097121;28;20040;-72
2022/06/11 13:10:57;;;;;;;22.77;2.88;;;22.40;91.30;;;;;;5097217;28;20044;-73
2022/06/11 13:14:03;;;;;;;19.70;3.10;;;22.40;91.20;;;;;;5107765;28;20047;-74